sensor_id;sensor_type;location;lat;lon;timestamp;temperature;humidity
20744;DHT22;56303;52.160;-0.428;2023-02-23T00:01:51;7.70;99.90
20744;DHT22;56303;52.160;-0.428;2023-02-23T00:04:17;7.90;99.90
20744;DHT22;56303;52.160;-0.428;2023-02-23T00:06:45;8.00;99.90
20744;DHT22;56303;52.160;-0.428;2023-02-23T00:09:12;8.30;99.90
20744;DHT22;56303;52.160;-0.428;2023-02-23T00:11:53;8.20;99.90
20744;DHT22;56303;52.160;-0.428;2023-02-23T00:14:24;8.20;99.90
20744;DHT22;56303;52.160;-0.428;2023-02-23T00:16:54;8.10;99.90
20744;DHT22;56303;52.160;-0.428;2023-02-23T00:19:21;7.90;99.90
20744;DHT22;56303;52.160;-0.428;2023-02-23T00:21:51;8.00;99.90
20744;DHT22;56303;52.160;-0.428;2023-02-23T00:24:18;7.60;99.90
20744;DHT22;56303;52.160;-0.428;2023-02-23T00:26:46;7.50;99.90
20744;DHT22;56303;52.160;-0.428;2023-02-23T00:29:16;7.50;99.90
20744;DHT22;56303;52.160;-0.428;2023-02-23T00:31:44;7.50;99.90
20744;DHT22;56303;52.160;-0.428;2023-02-23T00:34:14;7.40;99.90
20744;DHT22;56303;52.160;-0.428;2023-02-23T00:36:42;7.30;99.90
20744;DHT22;56303;52.160;-0.428;2023-02-23T00:39:11;7.40;99.90
20744;DHT22;56303;52.160;-0.428;2023-02-23T00:41:48;7.40;99.90
20744;DHT22;56303;52.160;-0.428;2023-02-23T00:44:15;7.30;99.90
20744;DHT22;56303;52.160;-0.428;2023-02-23T00:46:43;7.20;99.90
20744;DHT22;56303;52.160;-0.428;2023-02-23T00:49:12;7.30;99.90
20744;DHT22;56303;52.160;-0.428;2023-02-23T00:51:39;7.40;99.90
20744;DHT22;56303;52.160;-0.428;2023-02-23T00:54:07;7.40;99.90
20744;DHT22;56303;52.160;-0.428;2023-02-23T00:56:34;7.50;99.90
20744;DHT22;56303;52.160;-0.428;2023-02-23T00:59:01;7.80;99.90
20744;DHT22;56303;52.160;-0.428;2023-02-23T01:01:28;7.50;99.90
20744;DHT22;56303;52.160;-0.428;2023-02-23T01:03:55;7.70;99.90
20744;DHT22;56303;52.160;-0.428;2023-02-23T01:06:22;7.70;99.90
20744;DHT22;56303;52.160;-0.428;2023-02-23T01:08:51;7.40;99.90
20744;DHT22;56303;52.160;-0.428;2023-02-23T01:11:26;7.50;99.90
20744;DHT22;56303;52.160;-0.428;2023-02-23T01:13:56;7.50;99.90
20744;DHT22;56303;52.160;-0.428;2023-02-23T01:16:25;7.60;99.90
20744;DHT22;56303;52.160;-0.428;2023-02-23T01:18:55;7.50;99.90
20744;DHT22;56303;52.160;-0.428;2023-02-23T01:21:32;7.20;99.90
20744;DHT22;56303;52.160;-0.428;2023-02-23T01:23:59;7.30;99.90
20744;DHT22;56303;52.160;-0.428;2023-02-23T01:26:30;7.40;99.90
20744;DHT22;56303;52.160;-0.428;2023-02-23T01:29:04;7.20;99.90
20744;DHT22;56303;52.160;-0.428;2023-02-23T01:31:31;7.10;99.90
20744;DHT22;56303;52.160;-0.428;2023-02-23T01:34:00;7.10;99.90
20744;DHT22;56303;52.160;-0.428;2023-02-23T01:36:33;7.30;99.90
20744;DHT22;56303;52.160;-0.428;2023-02-23T01:39:00;7.40;99.90
20744;DHT22;56303;52.160;-0.428;2023-02-23T01:41:29;7.20;99.90
20744;DHT22;56303;52.160;-0.428;2023-02-23T01:44:00;7.20;99.90
20744;DHT22;56303;52.160;-0.428;2023-02-23T01:46:34;7.20;99.90
20744;DHT22;56303;52.160;-0.428;2023-02-23T01:49:02;7.20;99.90
20744;DHT22;56303;52.160;-0.428;2023-02-23T01:51:37;7.30;99.90
20744;DHT22;56303;52.160;-0.428;2023-02-23T01:54:11;7.20;99.90
20744;DHT22;56303;52.160;-0.428;2023-02-23T01:56:44;7.10;99.90
20744;DHT22;56303;52.160;-0.428;2023-02-23T01:59:13;7.30;99.90
20744;DHT22;56303;52.160;-0.428;2023-02-23T02:01:42;8.60;99.90
20744;DHT22;56303;52.160;-0.428;2023-02-23T02:04:10;7.40;99.90
20744;DHT22;56303;52.160;-0.428;2023-02-23T02:06:44;7.30;99.90
20744;DHT22;56303;52.160;-0.428;2023-02-23T02:09:15;7.30;99.90
20744;DHT22;56303;52.160;-0.428;2023-02-23T02:11:45;7.30;99.90
20744;DHT22;56303;52.160;-0.428;2023-02-23T02:14:19;7.20;99.90
20744;DHT22;56303;52.160;-0.428;2023-02-23T02:22:53;7.50;99.90
20744;DHT22;56303;52.160;-0.428;2023-02-23T02:31:04;7.60;99.90
20744;DHT22;56303;52.160;-0.428;2023-02-23T02:39:27;7.10;99.90
20744;DHT22;56303;52.160;-0.428;2023-02-23T02:48:44;7.10;99.90
20744;DHT22;56303;52.160;-0.428;2023-02-23T02:51:26;7.30;99.90
20744;DHT22;56303;52.160;-0.428;2023-02-23T02:54:13;7.40;99.90
20744;DHT22;56303;52.160;-0.428;2023-02-23T02:56:43;7.30;99.90
20744;DHT22;56303;52.160;-0.428;2023-02-23T02:59:15;7.20;99.90
20744;DHT22;56303;52.160;-0.428;2023-02-23T03:02:02;7.30;99.90
20744;DHT22;56303;52.160;-0.428;2023-02-23T03:04:48;7.20;99.90
20744;DHT22;56303;52.160;-0.428;2023-02-23T03:10:53;7.20;99.90
20744;DHT22;56303;52.160;-0.428;2023-02-23T03:20:07;7.10;99.90
20744;DHT22;56303;52.160;-0.428;2023-02-23T03:23:08;7.30;99.90
20744;DHT22;56303;52.160;-0.428;2023-02-23T03:26:08;7.20;99.90
20744;DHT22;56303;52.160;-0.428;2023-02-23T03:29:27;7.10;99.90
20744;DHT22;56303;52.160;-0.428;2023-02-23T03:32:34;7.40;99.90
20744;DHT22;56303;52.160;-0.428;2023-02-23T03:35:30;7.20;99.90
20744;DHT22;56303;52.160;-0.428;2023-02-23T03:38:24;7.30;99.90
20744;DHT22;56303;52.160;-0.428;2023-02-23T03:41:17;7.00;99.90
20744;DHT22;56303;52.160;-0.428;2023-02-23T03:44:09;7.10;99.90
20744;DHT22;56303;52.160;-0.428;2023-02-23T03:46:56;7.10;99.90
20744;DHT22;56303;52.160;-0.428;2023-02-23T03:49:44;7.70;99.90
20744;DHT22;56303;52.160;-0.428;2023-02-23T03:52:45;7.00;99.90
20744;DHT22;56303;52.160;-0.428;2023-02-23T03:55:34;7.40;99.90
20744;DHT22;56303;52.160;-0.428;2023-02-23T03:58:30;7.00;99.90
20744;DHT22;56303;52.160;-0.428;2023-02-23T04:01:17;6.80;99.90
20744;DHT22;56303;52.160;-0.428;2023-02-23T04:04:06;6.70;99.90
20744;DHT22;56303;52.160;-0.428;2023-02-23T04:06:55;6.60;99.90
20744;DHT22;56303;52.160;-0.428;2023-02-23T04:09:42;6.70;99.90
20744;DHT22;56303;52.160;-0.428;2023-02-23T04:12:43;6.60;99.90
20744;DHT22;56303;52.160;-0.428;2023-02-23T04:16:03;6.50;99.90
20744;DHT22;56303;52.160;-0.428;2023-02-23T04:18:33;6.70;99.90
20744;DHT22;56303;52.160;-0.428;2023-02-23T04:21:01;6.90;99.90
20744;DHT22;56303;52.160;-0.428;2023-02-23T04:23:28;7.00;99.90
20744;DHT22;56303;52.160;-0.428;2023-02-23T04:25:55;7.00;99.90
20744;DHT22;56303;52.160;-0.428;2023-02-23T04:28:23;7.00;99.90
20744;DHT22;56303;52.160;-0.428;2023-02-23T04:30:50;7.00;99.90
20744;DHT22;56303;52.160;-0.428;2023-02-23T04:33:20;6.70;99.90
20744;DHT22;56303;52.160;-0.428;2023-02-23T04:35:47;6.70;99.90
20744;DHT22;56303;52.160;-0.428;2023-02-23T04:38:14;6.80;99.90
20744;DHT22;56303;52.160;-0.428;2023-02-23T04:40:41;6.70;99.90
20744;DHT22;56303;52.160;-0.428;2023-02-23T04:43:11;6.70;99.90
20744;DHT22;56303;52.160;-0.428;2023-02-23T04:45:39;6.90;99.90
20744;DHT22;56303;52.160;-0.428;2023-02-23T04:48:09;6.50;99.90
20744;DHT22;56303;52.160;-0.428;2023-02-23T04:50:36;6.60;99.90
20744;DHT22;56303;52.160;-0.428;2023-02-23T04:53:23;6.60;99.90
20744;DHT22;56303;52.160;-0.428;2023-02-23T04:55:52;6.70;99.90
20744;DHT22;56303;52.160;-0.428;2023-02-23T04:58:27;6.70;99.90
20744;DHT22;56303;52.160;-0.428;2023-02-23T05:00:54;7.10;99.90
20744;DHT22;56303;52.160;-0.428;2023-02-23T05:03:21;5.90;99.90
20744;DHT22;56303;52.160;-0.428;2023-02-23T05:05:47;6.80;99.90
20744;DHT22;56303;52.160;-0.428;2023-02-23T05:08:14;6.80;99.90
20744;DHT22;56303;52.160;-0.428;2023-02-23T05:10:44;6.70;99.90
20744;DHT22;56303;52.160;-0.428;2023-02-23T05:13:11;6.60;99.90
20744;DHT22;56303;52.160;-0.428;2023-02-23T05:15:38;6.60;99.90
20744;DHT22;56303;52.160;-0.428;2023-02-23T05:18:05;6.40;99.90
20744;DHT22;56303;52.160;-0.428;2023-02-23T05:20:33;6.50;99.90
20744;DHT22;56303;52.160;-0.428;2023-02-23T05:23:00;6.50;99.90
20744;DHT22;56303;52.160;-0.428;2023-02-23T05:25:27;6.60;99.90
20744;DHT22;56303;52.160;-0.428;2023-02-23T05:27:55;6.50;99.90
20744;DHT22;56303;52.160;-0.428;2023-02-23T05:30:23;6.50;99.90
20744;DHT22;56303;52.160;-0.428;2023-02-23T05:32:50;6.60;99.90
20744;DHT22;56303;52.160;-0.428;2023-02-23T05:35:17;6.60;99.90
20744;DHT22;56303;52.160;-0.428;2023-02-23T05:37:43;6.70;99.90
20744;DHT22;56303;52.160;-0.428;2023-02-23T05:40:11;6.70;99.90
20744;DHT22;56303;52.160;-0.428;2023-02-23T05:42:38;6.50;99.90
20744;DHT22;56303;52.160;-0.428;2023-02-23T05:45:05;6.70;99.90
20744;DHT22;56303;52.160;-0.428;2023-02-23T05:47:33;6.80;99.90
20744;DHT22;56303;52.160;-0.428;2023-02-23T05:50:06;6.80;99.90
20744;DHT22;56303;52.160;-0.428;2023-02-23T05:52:37;6.70;99.90
20744;DHT22;56303;52.160;-0.428;2023-02-23T05:55:05;6.80;99.90
20744;DHT22;56303;52.160;-0.428;2023-02-23T05:57:32;6.70;99.90
20744;DHT22;56303;52.160;-0.428;2023-02-23T05:59:59;6.70;99.90
20744;DHT22;56303;52.160;-0.428;2023-02-23T06:02:27;6.60;99.90
20744;DHT22;56303;52.160;-0.428;2023-02-23T06:04:55;6.60;99.90
20744;DHT22;56303;52.160;-0.428;2023-02-23T06:07:21;6.60;99.90
20744;DHT22;56303;52.160;-0.428;2023-02-23T06:09:48;6.60;99.90
20744;DHT22;56303;52.160;-0.428;2023-02-23T06:12:15;6.50;99.90
20744;DHT22;56303;52.160;-0.428;2023-02-23T06:14:42;6.40;99.90
20744;DHT22;56303;52.160;-0.428;2023-02-23T06:17:09;6.30;99.90
20744;DHT22;56303;52.160;-0.428;2023-02-23T06:19:36;6.40;99.90
20744;DHT22;56303;52.160;-0.428;2023-02-23T06:22:06;6.40;99.90
20744;DHT22;56303;52.160;-0.428;2023-02-23T06:24:36;6.30;99.90
20744;DHT22;56303;52.160;-0.428;2023-02-23T06:27:03;6.50;99.90
20744;DHT22;56303;52.160;-0.428;2023-02-23T06:29:30;6.60;99.90
20744;DHT22;56303;52.160;-0.428;2023-02-23T06:31:57;6.40;99.90
20744;DHT22;56303;52.160;-0.428;2023-02-23T06:34:26;6.40;99.90
20744;DHT22;56303;52.160;-0.428;2023-02-23T06:36:53;6.50;99.90
20744;DHT22;56303;52.160;-0.428;2023-02-23T06:39:20;6.40;99.90
20744;DHT22;56303;52.160;-0.428;2023-02-23T06:41:47;6.40;99.90
20744;DHT22;56303;52.160;-0.428;2023-02-23T06:44:14;6.40;99.90
20744;DHT22;56303;52.160;-0.428;2023-02-23T06:46:41;6.40;99.90
20744;DHT22;56303;52.160;-0.428;2023-02-23T06:49:10;6.20;99.90
20744;DHT22;56303;52.160;-0.428;2023-02-23T06:51:37;6.20;99.90
20744;DHT22;56303;52.160;-0.428;2023-02-23T06:54:04;6.20;99.90
20744;DHT22;56303;52.160;-0.428;2023-02-23T06:56:35;6.40;99.90
20744;DHT22;56303;52.160;-0.428;2023-02-23T06:59:03;6.20;99.90
20744;DHT22;56303;52.160;-0.428;2023-02-23T07:01:29;6.10;99.90
20744;DHT22;56303;52.160;-0.428;2023-02-23T07:03:57;6.40;99.90
20744;DHT22;56303;52.160;-0.428;2023-02-23T07:06:23;6.30;99.90
20744;DHT22;56303;52.160;-0.428;2023-02-23T07:08:51;6.30;99.90
20744;DHT22;56303;52.160;-0.428;2023-02-23T07:11:18;6.30;99.90
20744;DHT22;56303;52.160;-0.428;2023-02-23T07:13:47;6.40;99.90
20744;DHT22;56303;52.160;-0.428;2023-02-23T07:16:16;6.40;99.90
20744;DHT22;56303;52.160;-0.428;2023-02-23T07:18:43;6.50;99.90
20744;DHT22;56303;52.160;-0.428;2023-02-23T07:21:09;6.30;99.90
20744;DHT22;56303;52.160;-0.428;2023-02-23T07:23:37;6.10;99.90
20744;DHT22;56303;52.160;-0.428;2023-02-23T07:26:03;6.30;99.90
20744;DHT22;56303;52.160;-0.428;2023-02-23T07:28:33;6.30;99.90
20744;DHT22;56303;52.160;-0.428;2023-02-23T07:31:00;7.10;99.90
20744;DHT22;56303;52.160;-0.428;2023-02-23T07:33:27;6.60;99.90
20744;DHT22;56303;52.160;-0.428;2023-02-23T07:35:54;6.50;99.90
20744;DHT22;56303;52.160;-0.428;2023-02-23T07:38:20;6.60;99.90
20744;DHT22;56303;52.160;-0.428;2023-02-23T07:40:49;6.60;99.90
20744;DHT22;56303;52.160;-0.428;2023-02-23T07:43:17;6.70;99.90
20744;DHT22;56303;52.160;-0.428;2023-02-23T07:45:49;6.70;99.90
20744;DHT22;56303;52.160;-0.428;2023-02-23T07:48:17;6.80;99.90
20744;DHT22;56303;52.160;-0.428;2023-02-23T07:50:45;6.70;99.90
20744;DHT22;56303;52.160;-0.428;2023-02-23T07:53:12;6.60;99.90
20744;DHT22;56303;52.160;-0.428;2023-02-23T07:55:39;6.80;99.90
20744;DHT22;56303;52.160;-0.428;2023-02-23T07:58:06;6.70;99.90
20744;DHT22;56303;52.160;-0.428;2023-02-23T08:00:34;6.60;99.90
20744;DHT22;56303;52.160;-0.428;2023-02-23T08:03:02;7.00;99.90
20744;DHT22;56303;52.160;-0.428;2023-02-23T08:05:29;6.80;99.90
20744;DHT22;56303;52.160;-0.428;2023-02-23T08:07:57;6.70;99.90
20744;DHT22;56303;52.160;-0.428;2023-02-23T08:10:24;6.60;99.90
20744;DHT22;56303;52.160;-0.428;2023-02-23T08:12:51;6.60;99.90
20744;DHT22;56303;52.160;-0.428;2023-02-23T08:15:18;6.90;99.90
20744;DHT22;56303;52.160;-0.428;2023-02-23T08:17:46;7.50;99.90
20744;DHT22;56303;52.160;-0.428;2023-02-23T08:20:13;6.50;99.90
20744;DHT22;56303;52.160;-0.428;2023-02-23T08:22:40;6.50;99.90
20744;DHT22;56303;52.160;-0.428;2023-02-23T08:25:16;6.70;99.90
20744;DHT22;56303;52.160;-0.428;2023-02-23T08:27:42;6.60;99.90
20744;DHT22;56303;52.160;-0.428;2023-02-23T08:30:11;6.70;99.90
20744;DHT22;56303;52.160;-0.428;2023-02-23T08:32:39;6.50;99.90
20744;DHT22;56303;52.160;-0.428;2023-02-23T08:35:08;6.60;99.90
20744;DHT22;56303;52.160;-0.428;2023-02-23T08:37:35;6.50;99.90
20744;DHT22;56303;52.160;-0.428;2023-02-23T08:40:04;6.50;99.90
20744;DHT22;56303;52.160;-0.428;2023-02-23T08:42:31;6.40;99.90
20744;DHT22;56303;52.160;-0.428;2023-02-23T08:44:57;6.40;99.90
20744;DHT22;56303;52.160;-0.428;2023-02-23T08:47:27;6.40;99.90
20744;DHT22;56303;52.160;-0.428;2023-02-23T08:49:54;6.40;99.90
20744;DHT22;56303;52.160;-0.428;2023-02-23T08:52:21;7.60;99.90
20744;DHT22;56303;52.160;-0.428;2023-02-23T08:54:48;6.50;99.90
20744;DHT22;56303;52.160;-0.428;2023-02-23T08:57:14;6.60;99.90
20744;DHT22;56303;52.160;-0.428;2023-02-23T08:59:41;6.90;99.90
20744;DHT22;56303;52.160;-0.428;2023-02-23T09:02:12;6.90;99.90
20744;DHT22;56303;52.160;-0.428;2023-02-23T09:04:41;7.00;99.90
20744;DHT22;56303;52.160;-0.428;2023-02-23T09:07:17;6.50;99.90
20744;DHT22;56303;52.160;-0.428;2023-02-23T09:09:44;6.60;99.90
20744;DHT22;56303;52.160;-0.428;2023-02-23T09:12:11;6.50;99.90
20744;DHT22;56303;52.160;-0.428;2023-02-23T09:14:38;6.60;99.90
20744;DHT22;56303;52.160;-0.428;2023-02-23T09:17:06;6.60;99.90
20744;DHT22;56303;52.160;-0.428;2023-02-23T09:19:33;6.70;99.90
20744;DHT22;56303;52.160;-0.428;2023-02-23T09:21:59;6.60;99.90
20744;DHT22;56303;52.160;-0.428;2023-02-23T09:24:26;6.70;99.90
20744;DHT22;56303;52.160;-0.428;2023-02-23T09:26:53;6.80;99.90
20744;DHT22;56303;52.160;-0.428;2023-02-23T09:29:20;6.90;99.90
20744;DHT22;56303;52.160;-0.428;2023-02-23T09:31:47;6.90;99.90
20744;DHT22;56303;52.160;-0.428;2023-02-23T09:34:14;7.30;99.90
20744;DHT22;56303;52.160;-0.428;2023-02-23T09:36:40;7.00;99.90
20744;DHT22;56303;52.160;-0.428;2023-02-23T09:39:07;7.00;99.90
20744;DHT22;56303;52.160;-0.428;2023-02-23T09:47:39;6.90;99.90
20744;DHT22;56303;52.160;-0.428;2023-02-23T09:50:21;6.80;99.90
20744;DHT22;56303;52.160;-0.428;2023-02-23T09:52:58;6.90;99.90
20744;DHT22;56303;52.160;-0.428;2023-02-23T09:55:27;7.20;99.90
20744;DHT22;56303;52.160;-0.428;2023-02-23T09:57:55;7.10;99.90
20744;DHT22;56303;52.160;-0.428;2023-02-23T10:00:25;6.80;99.90
20744;DHT22;56303;52.160;-0.428;2023-02-23T10:05:32;6.80;99.90
20744;DHT22;56303;52.160;-0.428;2023-02-23T10:08:07;6.90;99.90
20744;DHT22;56303;52.160;-0.428;2023-02-23T10:16:22;6.90;99.90
20744;DHT22;56303;52.160;-0.428;2023-02-23T10:21:43;6.80;99.90
20744;DHT22;56303;52.160;-0.428;2023-02-23T10:24:20;7.00;99.90
20744;DHT22;56303;52.160;-0.428;2023-02-23T10:26:58;6.80;99.90
20744;DHT22;56303;52.160;-0.428;2023-02-23T10:29:34;6.80;99.90
20744;DHT22;56303;52.160;-0.428;2023-02-23T10:32:06;7.10;99.90
20744;DHT22;56303;52.160;-0.428;2023-02-23T10:34:39;7.00;99.90
20744;DHT22;56303;52.160;-0.428;2023-02-23T10:37:10;7.20;99.90
20744;DHT22;56303;52.160;-0.428;2023-02-23T10:39:41;7.40;99.90
20744;DHT22;56303;52.160;-0.428;2023-02-23T10:42:14;7.50;99.90
20744;DHT22;56303;52.160;-0.428;2023-02-23T10:44:44;7.50;99.90
20744;DHT22;56303;52.160;-0.428;2023-02-23T10:47:18;7.60;99.90
20744;DHT22;56303;52.160;-0.428;2023-02-23T10:49:49;8.10;99.90
20744;DHT22;56303;52.160;-0.428;2023-02-23T10:54:58;8.00;99.90
20744;DHT22;56303;52.160;-0.428;2023-02-23T10:57:29;8.00;99.90
20744;DHT22;56303;52.160;-0.428;2023-02-23T11:00:25;8.40;99.90
20744;DHT22;56303;52.160;-0.428;2023-02-23T11:03:00;7.80;99.90
20744;DHT22;56303;52.160;-0.428;2023-02-23T11:05:51;7.80;99.90
20744;DHT22;56303;52.160;-0.428;2023-02-23T11:16:12;8.20;99.90
20744;DHT22;56303;52.160;-0.428;2023-02-23T11:18:58;8.40;99.90
20744;DHT22;56303;52.160;-0.428;2023-02-23T11:21:29;8.50;99.90
20744;DHT22;56303;52.160;-0.428;2023-02-23T11:24:18;8.30;99.90
20744;DHT22;56303;52.160;-0.428;2023-02-23T11:26:51;8.10;99.90
20744;DHT22;56303;52.160;-0.428;2023-02-23T11:29:38;8.50;99.90
20744;DHT22;56303;52.160;-0.428;2023-02-23T11:32:18;8.60;99.90
20744;DHT22;56303;52.160;-0.428;2023-02-23T11:37:47;8.20;99.90
20744;DHT22;56303;52.160;-0.428;2023-02-23T11:40:19;8.20;99.90
20744;DHT22;56303;52.160;-0.428;2023-02-23T11:43:05;8.20;99.90
20744;DHT22;56303;52.160;-0.428;2023-02-23T11:45:46;8.30;99.90
20744;DHT22;56303;52.160;-0.428;2023-02-23T11:48:41;8.30;99.90
20744;DHT22;56303;52.160;-0.428;2023-02-23T11:51:09;8.50;99.90
20744;DHT22;56303;52.160;-0.428;2023-02-23T11:53:40;8.60;99.90
20744;DHT22;56303;52.160;-0.428;2023-02-23T11:56:10;8.70;99.90
20744;DHT22;56303;52.160;-0.428;2023-02-23T12:01:07;6.70;99.90
20744;DHT22;56303;52.160;-0.428;2023-02-23T12:03:49;8.30;99.90
20744;DHT22;56303;52.160;-0.428;2023-02-23T12:06:40;8.10;99.90
20744;DHT22;56303;52.160;-0.428;2023-02-23T12:09:21;8.10;99.90
20744;DHT22;56303;52.160;-0.428;2023-02-23T12:12:06;8.20;99.90
20744;DHT22;56303;52.160;-0.428;2023-02-23T12:14:48;8.10;99.90
20744;DHT22;56303;52.160;-0.428;2023-02-23T12:17:22;8.00;99.90
20744;DHT22;56303;52.160;-0.428;2023-02-23T12:23:00;8.20;99.90
20744;DHT22;56303;52.160;-0.428;2023-02-23T12:25:35;8.30;99.90
20744;DHT22;56303;52.160;-0.428;2023-02-23T12:28:41;8.40;99.90
20744;DHT22;56303;52.160;-0.428;2023-02-23T12:33:54;8.80;99.90
20744;DHT22;56303;52.160;-0.428;2023-02-23T12:39:00;8.70;99.90
20744;DHT22;56303;52.160;-0.428;2023-02-23T12:41:44;8.40;99.90
20744;DHT22;56303;52.160;-0.428;2023-02-23T12:44:40;8.60;99.90
20744;DHT22;56303;52.160;-0.428;2023-02-23T12:50:10;8.40;99.90
20744;DHT22;56303;52.160;-0.428;2023-02-23T12:52:44;8.80;99.90
20744;DHT22;56303;52.160;-0.428;2023-02-23T12:55:13;8.90;99.90
20744;DHT22;56303;52.160;-0.428;2023-02-23T12:57:55;8.50;99.90
20744;DHT22;56303;52.160;-0.428;2023-02-23T13:00:36;8.40;99.90
20744;DHT22;56303;52.160;-0.428;2023-02-23T13:14:54;9.10;99.90
20744;DHT22;56303;52.160;-0.428;2023-02-23T13:20:25;9.30;99.90
20744;DHT22;56303;52.160;-0.428;2023-02-23T13:26:07;9.30;99.90
20744;DHT22;56303;52.160;-0.428;2023-02-23T13:31:24;9.00;99.90
20744;DHT22;56303;52.160;-0.428;2023-02-23T13:33:54;9.10;99.90
20744;DHT22;56303;52.160;-0.428;2023-02-23T13:36:22;9.30;99.90
20744;DHT22;56303;52.160;-0.428;2023-02-23T13:39:14;9.30;99.90
20744;DHT22;56303;52.160;-0.428;2023-02-23T13:41:48;9.30;99.90
20744;DHT22;56303;52.160;-0.428;2023-02-23T13:50:03;9.20;99.90
20744;DHT22;56303;52.160;-0.428;2023-02-23T13:52:42;9.20;99.90
20744;DHT22;56303;52.160;-0.428;2023-02-23T13:58:02;9.40;99.90
20744;DHT22;56303;52.160;-0.428;2023-02-23T14:00:30;9.40;99.90
20744;DHT22;56303;52.160;-0.428;2023-02-23T14:03:03;9.30;99.90
20744;DHT22;56303;52.160;-0.428;2023-02-23T14:05:41;9.10;99.90
20744;DHT22;56303;52.160;-0.428;2023-02-23T14:08:21;8.90;99.90
20744;DHT22;56303;52.160;-0.428;2023-02-23T14:10:49;8.70;99.90
20744;DHT22;56303;52.160;-0.428;2023-02-23T14:15:48;9.20;99.90
20744;DHT22;56303;52.160;-0.428;2023-02-23T14:26:35;9.00;99.90
20744;DHT22;56303;52.160;-0.428;2023-02-23T14:31:56;8.50;99.90
20744;DHT22;56303;52.160;-0.428;2023-02-23T14:37:31;8.70;99.90
20744;DHT22;56303;52.160;-0.428;2023-02-23T14:40:22;8.90;99.90
20744;DHT22;56303;52.160;-0.428;2023-02-23T14:42:54;8.80;99.90
20744;DHT22;56303;52.160;-0.428;2023-02-23T14:45:23;8.60;99.90
20744;DHT22;56303;52.160;-0.428;2023-02-23T14:48:00;8.60;99.90
20744;DHT22;56303;52.160;-0.428;2023-02-23T14:50:33;8.70;99.90
20744;DHT22;56303;52.160;-0.428;2023-02-23T14:53:01;8.70;99.90
20744;DHT22;56303;52.160;-0.428;2023-02-23T14:55:32;8.70;99.90
20744;DHT22;56303;52.160;-0.428;2023-02-23T14:58:02;8.60;99.90
20744;DHT22;56303;52.160;-0.428;2023-02-23T15:00:31;8.60;99.90
20744;DHT22;56303;52.160;-0.428;2023-02-23T15:03:07;8.70;99.90
20744;DHT22;56303;52.160;-0.428;2023-02-23T15:05:46;8.70;99.90
20744;DHT22;56303;52.160;-0.428;2023-02-23T15:08:17;8.70;99.90
20744;DHT22;56303;52.160;-0.428;2023-02-23T15:10:49;8.80;99.90
20744;DHT22;56303;52.160;-0.428;2023-02-23T15:13:33;8.70;99.90
20744;DHT22;56303;52.160;-0.428;2023-02-23T15:16:04;8.70;99.90
20744;DHT22;56303;52.160;-0.428;2023-02-23T15:18:40;8.80;99.90
20744;DHT22;56303;52.160;-0.428;2023-02-23T15:21:16;8.90;99.90
20744;DHT22;56303;52.160;-0.428;2023-02-23T15:23:47;8.80;99.90
20744;DHT22;56303;52.160;-0.428;2023-02-23T15:26:25;8.60;99.90
20744;DHT22;56303;52.160;-0.428;2023-02-23T15:28:52;8.60;99.90
20744;DHT22;56303;52.160;-0.428;2023-02-23T15:31:19;8.60;99.90
20744;DHT22;56303;52.160;-0.428;2023-02-23T15:33:48;8.50;99.90
20744;DHT22;56303;52.160;-0.428;2023-02-23T15:36:29;8.60;99.90
20744;DHT22;56303;52.160;-0.428;2023-02-23T15:39:03;8.80;99.90
20744;DHT22;56303;52.160;-0.428;2023-02-23T15:41:34;8.70;99.90
20744;DHT22;56303;52.160;-0.428;2023-02-23T15:46:39;8.60;99.90
20744;DHT22;56303;52.160;-0.428;2023-02-23T15:49:11;8.60;99.90
20744;DHT22;56303;52.160;-0.428;2023-02-23T15:51:47;8.70;99.90
20744;DHT22;56303;52.160;-0.428;2023-02-23T15:57:28;8.70;99.90
20744;DHT22;56303;52.160;-0.428;2023-02-23T16:00:01;8.90;99.90
20744;DHT22;56303;52.160;-0.428;2023-02-23T16:02:30;8.80;99.90
20744;DHT22;56303;52.160;-0.428;2023-02-23T16:05:19;8.70;99.90
20744;DHT22;56303;52.160;-0.428;2023-02-23T16:07:46;8.70;99.90
20744;DHT22;56303;52.160;-0.428;2023-02-23T16:10:22;8.80;99.90
20744;DHT22;56303;52.160;-0.428;2023-02-23T16:12:52;8.70;99.90
20744;DHT22;56303;52.160;-0.428;2023-02-23T16:17:58;8.80;99.90
20744;DHT22;56303;52.160;-0.428;2023-02-23T16:20:45;8.80;99.90
20744;DHT22;56303;52.160;-0.428;2023-02-23T16:23:39;9.10;99.90
20744;DHT22;56303;52.160;-0.428;2023-02-23T16:26:17;9.10;99.90
20744;DHT22;56303;52.160;-0.428;2023-02-23T16:28:45;9.40;99.90
20744;DHT22;56303;52.160;-0.428;2023-02-23T16:31:21;9.30;99.90
20744;DHT22;56303;52.160;-0.428;2023-02-23T16:33:54;9.20;99.90
20744;DHT22;56303;52.160;-0.428;2023-02-23T16:36:35;9.50;99.90
20744;DHT22;56303;52.160;-0.428;2023-02-23T16:39:10;9.40;99.90
20744;DHT22;56303;52.160;-0.428;2023-02-23T16:41:37;9.40;99.90
20744;DHT22;56303;52.160;-0.428;2023-02-23T16:44:06;9.20;99.90
20744;DHT22;56303;52.160;-0.428;2023-02-23T16:46:54;9.10;99.90
20744;DHT22;56303;52.160;-0.428;2023-02-23T16:49:22;8.70;99.90
20744;DHT22;56303;52.160;-0.428;2023-02-23T16:51:49;8.80;99.90
20744;DHT22;56303;52.160;-0.428;2023-02-23T16:54:17;9.10;99.90
20744;DHT22;56303;52.160;-0.428;2023-02-23T16:56:44;8.70;99.90
20744;DHT22;56303;52.160;-0.428;2023-02-23T16:59:15;8.90;99.90
20744;DHT22;56303;52.160;-0.428;2023-02-23T17:01:43;8.90;99.90
20744;DHT22;56303;52.160;-0.428;2023-02-23T17:04:16;9.00;99.90
20744;DHT22;56303;52.160;-0.428;2023-02-23T17:06:44;9.00;99.90
20744;DHT22;56303;52.160;-0.428;2023-02-23T17:09:18;8.90;99.90
20744;DHT22;56303;52.160;-0.428;2023-02-23T17:11:45;8.60;99.90
20744;DHT22;56303;52.160;-0.428;2023-02-23T17:14:23;8.70;99.90
20744;DHT22;56303;52.160;-0.428;2023-02-23T17:16:50;8.70;99.90
20744;DHT22;56303;52.160;-0.428;2023-02-23T17:19:18;8.60;99.90
20744;DHT22;56303;52.160;-0.428;2023-02-23T17:21:45;8.60;99.90
20744;DHT22;56303;52.160;-0.428;2023-02-23T17:24:12;8.50;99.90
20744;DHT22;56303;52.160;-0.428;2023-02-23T17:26:39;8.50;99.90
20744;DHT22;56303;52.160;-0.428;2023-02-23T17:29:07;8.10;99.90
20744;DHT22;56303;52.160;-0.428;2023-02-23T17:31:35;7.90;99.90
20744;DHT22;56303;52.160;-0.428;2023-02-23T17:34:03;7.90;99.90
20744;DHT22;56303;52.160;-0.428;2023-02-23T17:36:31;7.70;99.90
20744;DHT22;56303;52.160;-0.428;2023-02-23T17:38:57;7.70;99.90
20744;DHT22;56303;52.160;-0.428;2023-02-23T17:41:28;7.60;99.90
20744;DHT22;56303;52.160;-0.428;2023-02-23T17:44:02;7.50;99.90
20744;DHT22;56303;52.160;-0.428;2023-02-23T17:46:32;7.50;99.90
20744;DHT22;56303;52.160;-0.428;2023-02-23T17:48:59;7.60;99.90
20744;DHT22;56303;52.160;-0.428;2023-02-23T17:51:26;7.50;99.90
20744;DHT22;56303;52.160;-0.428;2023-02-23T17:53:54;7.30;99.90
20744;DHT22;56303;52.160;-0.428;2023-02-23T17:56:22;7.40;99.90
20744;DHT22;56303;52.160;-0.428;2023-02-23T17:58:49;7.50;99.90
20744;DHT22;56303;52.160;-0.428;2023-02-23T18:01:18;7.60;99.90
20744;DHT22;56303;52.160;-0.428;2023-02-23T18:03:46;7.80;99.90
20744;DHT22;56303;52.160;-0.428;2023-02-23T18:06:16;9.60;99.90
20744;DHT22;56303;52.160;-0.428;2023-02-23T18:08:45;7.90;99.90
20744;DHT22;56303;52.160;-0.428;2023-02-23T18:11:13;7.90;99.90
20744;DHT22;56303;52.160;-0.428;2023-02-23T18:13:47;7.70;99.90
20744;DHT22;56303;52.160;-0.428;2023-02-23T18:16:17;7.60;99.90